createdAt,value
2023-04-14T00:01:49.894Z,8.84
2023-04-14T00:05:15.200Z,8.86
2023-04-14T00:08:40.599Z,8.89
2023-04-14T00:12:05.845Z,8.88
2023-04-14T00:15:31.145Z,8.92
2023-04-14T00:18:56.519Z,8.93
2023-04-14T00:22:21.816Z,8.9
2023-04-14T00:25:47.164Z,8.88
2023-04-14T00:29:12.504Z,8.89
2023-04-14T00:32:37.785Z,8.92
2023-04-14T00:36:03.179Z,8.97
2023-04-14T00:39:28.531Z,8.98
2023-04-14T00:42:53.874Z,8.96
2023-04-14T00:46:19.284Z,8.91
2023-04-14T00:49:44.547Z,8.86
2023-04-14T00:53:09.905Z,8.82
2023-04-14T00:56:35.261Z,8.82
2023-04-14T01:00:00.588Z,8.77
2023-04-14T01:03:25.994Z,8.75
2023-04-14T01:06:51.187Z,8.7
2023-04-14T01:10:16.475Z,8.64
2023-04-14T01:13:41.830Z,8.6
2023-04-14T01:17:07.129Z,8.54
2023-04-14T01:20:32.471Z,8.5
2023-04-14T01:23:57.771Z,8.5
2023-04-14T01:27:23.078Z,8.5
2023-04-14T01:30:48.365Z,8.51
2023-04-14T01:34:13.712Z,8.46
2023-04-14T01:37:39.025Z,8.43
2023-04-14T01:41:04.285Z,8.41
2023-04-14T01:44:29.594Z,8.38
2023-04-14T01:47:54.905Z,8.36
2023-04-14T01:51:20.198Z,8.35
2023-04-14T01:54:45.547Z,8.32
2023-04-14T01:58:10.831Z,8.27
2023-04-14T02:01:36.162Z,8.26
2023-04-14T02:05:01.457Z,8.25
2023-04-14T02:08:26.776Z,8.26
2023-04-14T02:11:52.197Z,8.26
2023-04-14T02:15:17.456Z,8.24
2023-04-14T02:18:42.772Z,8.22
2023-04-14T02:22:08.059Z,8.23
2023-04-14T02:25:33.348Z,8.22
2023-04-14T02:28:58.829Z,8.22
2023-04-14T02:32:23.984Z,8.18
2023-04-14T02:35:49.205Z,8.13
2023-04-14T02:39:14.525Z,8.11
2023-04-14T02:42:39.789Z,8.07
2023-04-14T02:46:05.135Z,8.04
2023-04-14T02:49:30.382Z,7.98
2023-04-14T02:52:55.670Z,7.96
2023-04-14T02:56:20.909Z,7.94
2023-04-14T02:59:46.212Z,7.96
2023-04-14T03:03:11.581Z,7.97
2023-04-14T03:06:36.803Z,7.97
2023-04-14T03:10:02.157Z,7.98
2023-04-14T03:13:27.442Z,8
2023-04-14T03:16:53.573Z,8
2023-04-14T03:20:18.091Z,8
2023-04-14T03:23:43.316Z,7.98
2023-04-14T03:27:08.629Z,7.99
2023-04-14T03:30:33.894Z,7.99
2023-04-14T03:33:59.203Z,7.98
2023-04-14T03:37:24.506Z,7.97
2023-04-14T03:40:49.735Z,7.96
2023-04-14T03:44:15.006Z,7.96
2023-04-14T03:47:40.291Z,7.94
2023-04-14T03:51:05.579Z,7.9
2023-04-14T03:54:30.867Z,7.87
2023-04-14T03:57:56.110Z,7.87
2023-04-14T04:01:21.376Z,7.85
2023-04-14T04:04:46.820Z,7.88
2023-04-14T04:08:11.932Z,7.88
2023-04-14T04:11:37.235Z,7.87
2023-04-14T04:15:02.519Z,7.89
2023-04-14T04:18:27.813Z,7.92
2023-04-14T04:21:53.103Z,7.92
2023-04-14T04:25:18.395Z,7.93
2023-04-14T04:28:43.712Z,7.91
2023-04-14T04:32:09.005Z,7.88
2023-04-14T04:35:34.346Z,7.88
2023-04-14T04:38:59.910Z,7.89
2023-04-14T04:42:24.988Z,7.88
2023-04-14T04:45:50.599Z,7.89
2023-04-14T04:49:15.825Z,7.9
2023-04-14T04:52:41.132Z,7.95
2023-04-14T04:56:06.425Z,7.98
2023-04-14T04:59:31.706Z,8
2023-04-14T05:02:57.142Z,7.98
2023-04-14T05:06:22.301Z,8
2023-04-14T05:09:47.495Z,8
2023-04-14T05:13:12.717Z,7.99
2023-04-14T05:16:37.914Z,8
2023-04-14T05:20:03.188Z,8
2023-04-14T05:23:28.341Z,8.06
2023-04-14T05:27:12.159Z,8.09
2023-04-14T05:30:18.803Z,8.13
2023-04-14T05:33:44.002Z,8.15
2023-04-14T05:37:09.260Z,8.19
2023-04-14T05:40:34.480Z,8.22
2023-04-14T05:44:00.052Z,8.23
2023-04-14T05:47:24.926Z,8.24
2023-04-14T05:50:50.091Z,8.25
2023-04-14T05:54:15.540Z,8.25
2023-04-14T05:57:40.631Z,8.22
2023-04-14T06:01:05.857Z,8.21
2023-04-14T06:04:31.124Z,8.24
2023-04-14T06:07:56.327Z,8.25
2023-04-14T06:11:21.693Z,8.28
2023-04-14T06:14:46.915Z,8.31
2023-04-14T06:18:12.247Z,8.34
2023-04-14T06:21:37.559Z,8.35
2023-04-14T06:25:02.859Z,8.38
2023-04-14T06:28:28.193Z,8.42
2023-04-14T06:31:53.568Z,8.45
2023-04-14T06:35:30.040Z,8.45
2023-04-14T06:38:44.208Z,8.49
2023-04-14T06:42:09.517Z,8.53
2023-04-14T06:45:34.971Z,8.59
2023-04-14T06:49:00.421Z,8.61
2023-04-14T06:52:25.602Z,8.63
2023-04-14T06:55:50.947Z,8.68
2023-04-14T06:59:16.280Z,8.74
2023-04-14T07:02:41.842Z,8.77
2023-04-14T07:06:06.967Z,8.81
2023-04-14T07:09:32.329Z,8.85
2023-04-14T07:12:57.632Z,8.88
2023-04-14T07:16:23.082Z,8.91
2023-04-14T07:19:48.345Z,8.95
2023-04-14T07:23:13.628Z,9.04
2023-04-14T07:26:38.914Z,9.07
2023-04-14T07:30:04.285Z,9.1
2023-04-14T07:33:29.638Z,9.13
2023-04-14T07:36:55.059Z,9.19
2023-04-14T07:40:20.382Z,9.26
2023-04-14T07:43:45.737Z,9.29
2023-04-14T07:47:11.100Z,9.32
2023-04-14T07:50:36.504Z,9.38
2023-04-14T07:54:02.151Z,9.39
2023-04-14T07:57:27.161Z,9.41
2023-04-14T08:00:52.465Z,9.41
2023-04-14T08:04:17.782Z,9.37
2023-04-14T08:07:43.139Z,9.37
2023-04-14T08:11:08.524Z,9.39
2023-04-14T08:14:33.768Z,9.36
2023-04-14T08:17:59.032Z,9.33
2023-04-14T08:21:24.277Z,9.33
2023-04-14T08:24:49.531Z,9.43
2023-04-14T08:28:14.905Z,9.58
2023-04-14T08:31:40.167Z,9.68
2023-04-14T08:35:36.404Z,9.76
2023-04-14T08:38:30.645Z,9.77
2023-04-14T08:41:55.932Z,9.83
2023-04-14T08:45:21.278Z,9.86
2023-04-14T08:48:46.645Z,9.9
2023-04-14T08:52:11.882Z,9.95
2023-04-14T08:55:37.208Z,9.94
2023-04-14T08:59:02.599Z,9.98
2023-04-14T09:02:28.024Z,10.07
2023-04-14T09:05:53.192Z,10.13
2023-04-14T09:09:18.493Z,10.13
2023-04-14T09:12:43.816Z,10.21
2023-04-14T09:16:09.125Z,10.34
2023-04-14T09:19:34.498Z,10.41
2023-04-14T09:22:59.867Z,10.49
2023-04-14T09:26:25.289Z,10.59
2023-04-14T09:29:50.644Z,10.75
2023-04-14T09:33:16.066Z,10.9
2023-04-14T09:36:41.506Z,11.01
2023-04-14T09:40:06.857Z,11.12
2023-04-14T09:43:32.365Z,11.24
2023-04-14T09:46:57.790Z,11.3
2023-04-14T09:50:23.207Z,11.37
2023-04-14T09:53:48.765Z,11.46
2023-04-14T09:57:14.021Z,11.54
2023-04-14T10:00:39.402Z,11.6
2023-04-14T10:04:04.788Z,11.59
2023-04-14T10:07:30.156Z,11.44
2023-04-14T10:10:55.544Z,11.33
2023-04-14T10:14:20.849Z,11.31
2023-04-14T10:17:46.217Z,11.32
2023-04-14T10:21:11.553Z,11.29
2023-04-14T10:24:36.870Z,11.22
2023-04-14T10:28:02.202Z,11.08
2023-04-14T10:31:27.472Z,10.92
2023-04-14T10:34:52.811Z,10.86
2023-04-14T10:38:18.165Z,10.93
2023-04-14T10:41:43.555Z,11
2023-04-14T10:45:08.995Z,11.09
2023-04-14T10:48:34.236Z,10.99
2023-04-14T10:51:59.561Z,10.78
2023-04-14T10:55:24.817Z,10.48
2023-04-14T10:58:50.112Z,10.05
2023-04-14T11:02:15.457Z,9.85
2023-04-14T11:05:40.751Z,9.92
2023-04-14T11:09:06.072Z,10.1
2023-04-14T11:12:31.375Z,10.24
2023-04-14T11:15:56.689Z,10.4
2023-04-14T11:19:22.162Z,10.5
2023-04-14T11:22:47.453Z,10.64
2023-04-14T11:26:17.820Z,10.8
2023-04-14T11:29:43.177Z,10.88
2023-04-14T11:33:08.552Z,10.94
2023-04-14T11:36:33.823Z,11.02
2023-04-14T11:39:59.058Z,10.99
2023-04-14T11:43:24.413Z,11
2023-04-14T11:46:50.313Z,11.04
2023-04-14T11:50:15.685Z,11.14
2023-04-14T11:53:41.017Z,11.25
2023-04-14T11:57:06.318Z,11.4
2023-04-14T12:00:31.561Z,11.44
2023-04-14T12:03:56.941Z,11.4
2023-04-14T12:07:22.087Z,11.34
2023-04-14T12:10:47.536Z,11.41
2023-04-14T12:14:12.761Z,11.51
2023-04-14T12:17:38.074Z,11.62
2023-04-14T12:21:03.274Z,11.64
2023-04-14T12:24:28.533Z,11.57
2023-04-14T12:27:55.851Z,11.4
2023-04-14T12:31:19.061Z,11.11
2023-04-14T12:34:44.446Z,10.84
2023-04-14T12:38:09.689Z,10.74
2023-04-14T12:41:34.967Z,10.79
2023-04-14T12:45:00.533Z,10.87
2023-04-14T12:48:25.766Z,10.95
2023-04-14T12:51:51.237Z,11.1
2023-04-14T12:55:16.585Z,11.22
2023-04-14T12:58:42.019Z,11.39
2023-04-14T13:02:07.443Z,11.47
2023-04-14T13:05:32.922Z,11.48
2023-04-14T13:08:58.479Z,11.56
2023-04-14T13:12:23.968Z,11.66
2023-04-14T13:16:12.600Z,11.75
2023-04-14T13:19:14.836Z,11.79
2023-04-14T13:22:40.435Z,11.78
2023-04-14T13:26:05.910Z,11.73
2023-04-14T13:29:31.464Z,11.72
2023-04-14T13:32:57.177Z,11.7
2023-04-14T13:36:22.862Z,11.74
2023-04-14T13:39:48.393Z,11.7
2023-04-14T13:43:13.976Z,11.58
2023-04-14T13:46:41.382Z,11.42
2023-04-14T13:50:05.179Z,11.27
2023-04-14T13:53:30.788Z,11.17
2023-04-14T13:56:56.386Z,11.04
2023-04-14T14:00:21.755Z,10.87
2023-04-14T14:03:47.266Z,10.7
2023-04-14T14:07:12.334Z,10.58
2023-04-14T14:10:37.631Z,10.49
2023-04-14T14:14:03.110Z,10.46
2023-04-14T14:17:28.262Z,10.46
2023-04-14T14:20:53.577Z,10.54
2023-04-14T14:24:18.879Z,10.61
2023-04-14T14:27:44.214Z,10.7
2023-04-14T14:31:09.521Z,10.76
2023-04-14T14:34:34.876Z,10.75
2023-04-14T14:38:00.886Z,10.8
2023-04-14T14:41:25.484Z,10.9
2023-04-14T14:44:50.794Z,10.99
2023-04-14T14:48:16.351Z,11.11
2023-04-14T14:51:41.675Z,11.19
2023-04-14T14:55:06.964Z,11.16
2023-04-14T14:58:32.272Z,11.07
2023-04-14T15:01:57.712Z,10.96
2023-04-14T15:05:22.957Z,10.95
2023-04-14T15:39:59.023Z,9.03
2023-04-14T15:43:24.381Z,10.01
2023-04-14T15:46:49.758Z,10.22
2023-04-14T15:50:18.495Z,10.38
2023-04-14T15:53:40.540Z,10.51
2023-04-14T15:57:05.983Z,10.66
2023-04-14T16:00:31.385Z,10.79
2023-04-14T16:03:56.842Z,10.81
2023-04-14T16:07:22.178Z,10.82
2023-04-14T16:10:47.548Z,10.8
2023-04-14T16:14:12.983Z,10.8
2023-04-14T16:17:38.408Z,10.78
2023-04-14T16:21:03.763Z,10.74
2023-04-14T16:24:29.599Z,10.66
2023-04-14T16:27:55.075Z,10.58
2023-04-14T16:31:20.527Z,10.51
2023-04-14T16:34:45.871Z,10.42
2023-04-14T16:38:11.258Z,10.31
2023-04-14T16:41:36.633Z,10.2
2023-04-14T16:45:02.344Z,10.14
2023-04-14T16:48:28.171Z,10.1
2023-04-14T16:51:53.709Z,10.09
2023-04-14T16:55:19.276Z,10.02
2023-04-14T16:58:46.593Z,10.01
2023-04-14T17:02:15.613Z,10.06
2023-04-14T17:05:42.286Z,10.13
2023-04-14T17:09:09.182Z,10.16
2023-04-14T17:12:35.598Z,10.14
2023-04-14T17:16:08.591Z,10.09
2023-04-14T17:19:30.719Z,10.09
2023-04-14T17:22:58.191Z,10.08
2023-04-14T17:26:25.808Z,10.08
2023-04-14T17:29:51.671Z,10.09
2023-04-14T17:33:17.405Z,10.08
2023-04-14T17:36:43.046Z,10.06
2023-04-14T17:40:08.752Z,10.04
2023-04-14T17:43:34.386Z,10.03
2023-04-14T17:47:00.918Z,9.97
2023-04-14T17:50:26.764Z,9.94
2023-04-14T17:53:52.569Z,9.86
2023-04-14T17:57:18.431Z,9.83
2023-04-14T18:00:44.170Z,9.82
2023-04-14T18:04:09.995Z,9.82
2023-04-14T18:07:35.688Z,9.84
2023-04-14T18:11:01.440Z,9.88
2023-04-14T18:14:27.133Z,9.93
2023-04-14T18:17:52.937Z,9.94
2023-04-14T18:21:18.612Z,9.95
2023-04-14T18:28:10.064Z,9.98
2023-04-14T18:31:35.813Z,10.03
2023-04-14T18:35:01.431Z,10.1
2023-04-14T18:38:27.025Z,10.15
2023-04-14T18:41:52.644Z,10.17
2023-04-14T18:45:18.233Z,10.2
2023-04-14T18:48:43.611Z,10.21
2023-04-14T18:52:08.935Z,10.24
2023-04-14T18:55:37.228Z,10.23
2023-04-14T18:58:59.750Z,10.23
2023-04-14T19:02:25.076Z,10.26
2023-04-14T19:05:50.315Z,10.25
2023-04-14T19:09:15.671Z,10.19
2023-04-14T19:12:41.010Z,10.14
2023-04-14T19:16:06.440Z,10.08
2023-04-14T19:19:31.736Z,10.01
2023-04-14T19:22:57.086Z,9.86
2023-04-14T19:26:22.416Z,9.8
2023-04-14T19:29:47.751Z,9.75
2023-04-14T19:33:13.137Z,9.69
2023-04-14T19:36:38.478Z,9.61
2023-04-14T19:40:03.847Z,9.63
2023-04-14T19:43:29.169Z,9.61
2023-04-14T19:46:54.592Z,9.58
2023-04-14T19:50:19.908Z,9.57
2023-04-14T19:53:45.244Z,9.54
2023-04-14T19:57:10.634Z,9.52
2023-04-14T20:00:36.109Z,9.49
2023-04-14T20:04:05.126Z,9.51
2023-04-14T20:07:26.547Z,9.48
2023-04-14T20:10:51.785Z,9.48
2023-04-14T20:14:17.000Z,9.52
2023-04-14T20:17:42.230Z,9.52
2023-04-14T20:21:08.793Z,9.57
2023-04-14T20:24:34.029Z,9.62
2023-04-14T20:27:59.219Z,9.7
2023-04-14T20:31:24.554Z,9.79
2023-04-14T20:34:49.667Z,9.85
2023-04-14T20:38:15.549Z,9.83
2023-04-14T20:41:40.111Z,9.82
2023-04-14T20:45:05.323Z,9.78
2023-04-14T20:48:30.601Z,9.77
2023-04-14T20:51:55.744Z,9.75
2023-04-14T20:55:20.961Z,9.72
2023-04-14T20:58:46.177Z,9.67
2023-04-14T21:02:11.598Z,9.66
2023-04-14T21:05:36.615Z,9.65
2023-04-14T21:09:02.684Z,9.59
2023-04-14T21:12:31.010Z,9.57
2023-04-14T21:15:55.259Z,9.54
2023-04-14T21:19:18.179Z,9.47
2023-04-14T21:22:43.443Z,9.41
2023-04-14T21:26:08.593Z,9.39
2023-04-14T21:29:33.803Z,9.38
2023-04-14T21:32:59.056Z,9.36
2023-04-14T21:36:24.225Z,9.34
2023-04-14T21:39:49.477Z,9.29
2023-04-14T21:43:14.680Z,9.25
2023-04-14T21:46:39.919Z,9.27
2023-04-14T21:50:08.618Z,9.27
2023-04-14T21:53:33.829Z,9.25
2023-04-14T21:56:59.071Z,9.23
2023-04-14T22:00:24.261Z,9.2
2023-04-14T22:03:49.600Z,9.15
2023-04-14T22:07:14.682Z,9.13
2023-04-14T22:10:39.892Z,9.13
2023-04-14T22:14:05.127Z,9.12
2023-04-14T22:17:30.326Z,9.1
2023-04-14T22:20:55.530Z,9.11
2023-04-14T22:24:20.739Z,9.04
2023-04-14T22:27:45.948Z,8.93
2023-04-14T22:31:11.217Z,8.88
2023-04-14T22:34:36.398Z,8.86
2023-04-14T22:38:01.618Z,8.83
2023-04-14T22:41:26.805Z,8.83
2023-04-14T22:44:52.024Z,8.82
2023-04-14T22:48:17.244Z,8.86
2023-04-14T22:51:42.424Z,8.9
2023-04-14T22:55:07.617Z,8.95
2023-04-14T22:58:32.819Z,9.01
2023-04-14T23:01:58.056Z,9.02
2023-04-14T23:05:23.544Z,9.06
2023-04-14T23:08:48.679Z,9.07
2023-04-14T23:12:13.889Z,9.03
2023-04-14T23:15:39.140Z,9.03
2023-04-14T23:19:04.456Z,8.95
2023-04-14T23:22:29.557Z,8.93
2023-04-14T23:25:54.744Z,8.94
2023-04-14T23:29:19.943Z,8.9
2023-04-14T23:32:45.191Z,8.84
2023-04-14T23:36:10.338Z,8.78
2023-04-14T23:39:35.596Z,8.8
2023-04-14T23:43:00.768Z,8.83
2023-04-14T23:46:25.973Z,8.81
2023-04-14T23:49:51.256Z,8.82
2023-04-14T23:53:16.401Z,8.82
2023-04-14T23:56:41.598Z,8.81
